createdAt,value
2017-09-30T00:02:42.597Z,18.22
2017-09-30T00:07:38.286Z,18.18
2017-09-30T00:12:34.191Z,18.08
2017-09-30T00:17:30.094Z,17.98
2017-09-30T00:22:25.955Z,17.95
2017-09-30T00:27:22.684Z,17.89
2017-09-30T00:32:19.298Z,17.86
2017-09-30T00:37:16.371Z,17.74
2017-09-30T00:42:13.016Z,17.74
2017-09-30T00:47:09.654Z,17.68
2017-09-30T00:52:06.409Z,17.60
2017-09-30T00:57:02.029Z,17.64
2017-09-30T01:01:57.830Z,17.57
2017-09-30T01:06:54.524Z,17.63
2017-09-30T01:11:49.917Z,17.70
2017-09-30T01:16:45.756Z,17.92
2017-09-30T01:21:41.496Z,17.97
2017-09-30T01:26:37.176Z,17.98
2017-09-30T01:31:34.390Z,18.01
2017-09-30T01:36:29.841Z,18.04
2017-09-30T01:41:26.359Z,17.97
2017-09-30T01:46:22.495Z,17.94
2017-09-30T01:51:18.316Z,17.86
2017-09-30T01:56:15.704Z,17.71
2017-09-30T02:01:12.163Z,17.70
2017-09-30T02:06:07.863Z,17.51
2017-09-30T02:11:03.475Z,17.30
2017-09-30T02:15:59.202Z,17.42
2017-09-30T02:20:55.134Z,17.41
2017-09-30T02:25:50.872Z,17.42
2017-09-30T02:30:46.457Z,17.45
2017-09-30T02:35:42.277Z,17.31
2017-09-30T02:40:38.116Z,17.44
2017-09-30T02:45:34.377Z,17.29
2017-09-30T02:50:30.947Z,17.34
2017-09-30T02:55:26.722Z,17.36
2017-09-30T03:00:22.426Z,17.36
2017-09-30T03:05:19.346Z,17.30
2017-09-30T03:10:14.782Z,17.29
2017-09-30T03:15:10.981Z,17.29
2017-09-30T03:20:07.023Z,17.12
2017-09-30T03:25:02.757Z,17.19
2017-09-30T03:29:59.716Z,17.06
2017-09-30T03:34:55.308Z,17.16
2017-09-30T03:39:50.954Z,17.16
2017-09-30T03:44:47.854Z,17.19
2017-09-30T03:49:43.352Z,17.19
2017-09-30T03:54:39.150Z,17.19
2017-09-30T03:59:34.870Z,17.06
2017-09-30T04:04:31.973Z,17.01
2017-09-30T04:09:27.624Z,17.02
2017-09-30T04:14:23.354Z,17.08
2017-09-30T04:19:19.201Z,17.06
2017-09-30T04:24:15.356Z,17.05
2017-09-30T04:29:12.339Z,16.90
2017-09-30T04:34:07.855Z,16.93
2017-09-30T04:39:04.052Z,16.91
2017-09-30T04:43:59.908Z,17.02
2017-09-30T04:48:55.579Z,16.76
2017-09-30T04:53:51.358Z,16.69
2017-09-30T04:58:47.251Z,16.66
2017-09-30T05:03:43.037Z,16.83
2017-09-30T05:08:39.018Z,16.89
2017-09-30T05:13:34.429Z,16.89
2017-09-30T05:18:30.454Z,16.96
2017-09-30T05:23:26.437Z,16.93
2017-09-30T05:28:22.233Z,16.94
2017-09-30T05:33:18.607Z,16.96
2017-09-30T05:38:14.530Z,16.89
2017-09-30T05:43:10.303Z,16.86
2017-09-30T05:48:06.087Z,16.91
2017-09-30T05:53:02.000Z,16.76
2017-09-30T05:57:57.745Z,16.76
2017-09-30T06:02:53.661Z,16.75
2017-09-30T06:07:50.059Z,16.74
2017-09-30T06:12:45.918Z,16.84
2017-09-30T06:17:42.838Z,16.90
2017-09-30T06:22:39.723Z,16.76
2017-09-30T06:27:35.232Z,16.84
2017-09-30T06:32:31.040Z,16.91
2017-09-30T06:37:27.048Z,16.89
2017-09-30T06:42:23.829Z,16.91
2017-09-30T06:47:20.532Z,16.87
2017-09-30T06:52:16.022Z,17.02
2017-09-30T06:57:11.930Z,17.06
2017-09-30T07:02:08.045Z,17.08
2017-09-30T07:07:04.333Z,17.20
2017-09-30T07:12:00.369Z,17.27
2017-09-30T07:16:56.516Z,17.36
2017-09-30T07:21:53.203Z,17.46
2017-09-30T07:26:50.247Z,17.48
2017-09-30T07:31:46.053Z,17.39
2017-09-30T07:36:41.787Z,17.44
2017-09-30T07:41:37.651Z,17.46
2017-09-30T07:46:33.415Z,17.48
2017-09-30T07:51:29.332Z,17.45
2017-09-30T07:56:25.533Z,17.52
2017-09-30T08:01:21.124Z,17.51
2017-09-30T08:06:17.005Z,17.34
2017-09-30T08:11:13.239Z,17.36
2017-09-30T08:16:10.152Z,17.33
2017-09-30T08:21:05.729Z,17.26
2017-09-30T08:26:02.592Z,17.34
2017-09-30T08:30:58.319Z,17.33
2017-09-30T08:35:54.379Z,17.49
2017-09-30T08:40:51.703Z,17.63
2017-09-30T08:45:48.240Z,17.78
2017-09-30T08:50:44.242Z,17.80
2017-09-30T08:55:41.420Z,17.85
2017-09-30T09:00:37.124Z,17.83
2017-09-30T09:05:32.726Z,17.90
2017-09-30T09:10:28.483Z,17.79
2017-09-30T09:15:24.359Z,17.78
2017-09-30T09:20:20.165Z,17.83
2017-09-30T09:25:16.149Z,17.83
2017-09-30T09:30:12.252Z,17.82
2017-09-30T09:35:08.121Z,17.90
2017-09-30T09:40:05.175Z,17.90
2017-09-30T09:45:00.906Z,17.98
2017-09-30T09:49:59.087Z,18.16
2017-09-30T09:54:54.670Z,18.08
2017-09-30T09:59:51.729Z,18.05
2017-09-30T10:04:48.538Z,18.04
2017-09-30T10:09:44.103Z,18.03
2017-09-30T10:14:39.989Z,18.04
2017-09-30T10:19:36.621Z,18.20
2017-09-30T10:24:33.127Z,18.25
2017-09-30T10:29:29.002Z,18.20
2017-09-30T10:34:25.042Z,18.28
2017-09-30T10:39:22.255Z,18.40
2017-09-30T10:44:18.136Z,18.50
2017-09-30T10:49:14.279Z,18.45
2017-09-30T10:54:10.130Z,18.34
2017-09-30T10:59:05.710Z,18.28
2017-09-30T11:04:01.778Z,18.43
2017-09-30T11:08:58.243Z,18.40
2017-09-30T11:13:53.975Z,18.43
2017-09-30T11:18:50.592Z,18.58
2017-09-30T11:23:46.165Z,18.31
2017-09-30T11:28:43.060Z,18.33
2017-09-30T11:33:38.334Z,18.20
2017-09-30T11:38:34.916Z,18.19
2017-09-30T11:43:31.069Z,18.33
2017-09-30T11:48:27.334Z,18.31
2017-09-30T11:53:23.247Z,18.31
2017-09-30T11:58:20.894Z,18.23
2017-09-30T12:03:16.278Z,18.25
2017-09-30T12:08:13.227Z,18.16
2017-09-30T12:13:08.931Z,18.20
2017-09-30T12:18:06.310Z,18.20
2017-09-30T12:23:02.218Z,18.18
2017-09-30T12:27:57.830Z,18.23
2017-09-30T12:32:53.617Z,18.00
2017-09-30T12:37:51.254Z,17.97
2017-09-30T12:42:47.221Z,17.31
2017-09-30T12:47:42.490Z,16.53
2017-09-30T12:52:38.256Z,15.88
2017-09-30T12:57:34.299Z,15.61
2017-09-30T13:02:29.902Z,15.51
2017-09-30T13:07:25.490Z,15.35
2017-09-30T13:12:20.910Z,15.22
2017-09-30T13:17:17.957Z,15.28
2017-09-30T13:22:14.878Z,15.21
2017-09-30T13:27:10.783Z,15.11
2017-09-30T13:32:06.277Z,15.04
2017-09-30T13:37:02.726Z,14.91
2017-09-30T13:41:59.108Z,14.50
2017-09-30T13:46:55.525Z,14.68
2017-09-30T13:51:51.136Z,14.48
2017-09-30T13:56:48.280Z,14.45
2017-09-30T14:01:44.715Z,14.47
2017-09-30T14:06:40.465Z,14.35
2017-09-30T14:11:36.770Z,14.28
2017-09-30T14:16:33.415Z,14.28
2017-09-30T14:21:29.819Z,14.28
2017-09-30T14:26:25.532Z,14.33
2017-09-30T14:31:21.313Z,14.18
2017-09-30T14:36:17.699Z,14.03
2017-09-30T14:41:13.445Z,14.11
2017-09-30T14:46:10.053Z,13.99
2017-09-30T14:51:05.988Z,14.08
2017-09-30T14:56:01.817Z,14.00
2017-09-30T15:00:57.627Z,13.99
2017-09-30T15:05:53.541Z,14.08
2017-09-30T15:10:50.522Z,14.03
2017-09-30T15:15:46.218Z,14.11
2017-09-30T15:20:42.960Z,13.95
2017-09-30T15:25:38.746Z,14.05
2017-09-30T15:30:35.956Z,14.18
2017-09-30T15:35:32.634Z,14.08
2017-09-30T15:40:28.105Z,14.12
2017-09-30T15:45:23.982Z,14.04
2017-09-30T15:50:20.864Z,14.05
2017-09-30T15:55:16.551Z,14.14
2017-09-30T16:00:12.407Z,14.29
2017-09-30T16:05:09.559Z,14.32
2017-09-30T16:10:05.049Z,14.17
2017-09-30T16:15:01.920Z,13.78
2017-09-30T16:19:57.345Z,13.79
2017-09-30T16:24:54.242Z,13.57
2017-09-30T16:29:50.634Z,13.53
2017-09-30T16:34:46.265Z,13.44
2017-09-30T16:39:42.081Z,13.56
2017-09-30T16:44:37.862Z,13.54
2017-09-30T16:49:33.902Z,13.42
2017-09-30T16:54:30.639Z,13.53
2017-09-30T16:59:28.331Z,13.60
2017-09-30T17:04:24.975Z,13.49
2017-09-30T17:09:24.715Z,13.50
2017-09-30T17:14:19.608Z,13.49
2017-09-30T17:19:15.593Z,13.33
2017-09-30T17:24:11.480Z,13.31
2017-09-30T17:29:07.173Z,13.38
2017-09-30T17:34:04.028Z,13.44
2017-09-30T17:38:59.527Z,13.31
2017-09-30T17:43:55.466Z,13.38
2017-09-30T17:48:51.069Z,13.22
2017-09-30T17:53:47.075Z,13.18
2017-09-30T17:58:43.907Z,13.15
2017-09-30T18:03:39.473Z,13.13
2017-09-30T18:08:35.220Z,13.23
2017-09-30T18:13:30.901Z,13.15
2017-09-30T18:18:27.122Z,13.18
2017-09-30T18:23:22.984Z,13.01
2017-09-30T18:28:18.592Z,13.16
2017-09-30T18:33:18.388Z,13.05
2017-09-30T18:38:14.126Z,13.01
2017-09-30T18:43:09.790Z,13.01
2017-09-30T18:48:06.474Z,12.97
2017-09-30T18:53:03.012Z,13.01
2017-09-30T18:57:59.076Z,12.93
2017-09-30T19:02:55.594Z,12.87
2017-09-30T19:07:51.216Z,12.82
2017-09-30T19:12:49.089Z,12.85
2017-09-30T19:17:44.103Z,12.97
2017-09-30T19:22:40.063Z,12.85
2017-09-30T19:27:35.798Z,12.90
2017-09-30T19:32:32.465Z,12.87
2017-09-30T19:37:29.028Z,12.82
2017-09-30T19:42:24.571Z,12.83
2017-09-30T19:47:21.592Z,12.73
2017-09-30T19:52:17.245Z,12.85
2017-09-30T19:57:13.128Z,12.75
2017-09-30T20:02:09.001Z,12.75
2017-09-30T20:07:04.656Z,12.87
2017-09-30T20:12:00.761Z,12.80
2017-09-30T20:16:57.712Z,12.85
2017-09-30T20:21:54.662Z,12.78
2017-09-30T20:26:51.245Z,12.78
2017-09-30T20:31:48.305Z,12.60
2017-09-30T20:36:43.638Z,12.58
2017-09-30T20:41:41.973Z,12.43
2017-09-30T20:46:38.143Z,12.39
2017-09-30T20:51:34.909Z,12.29
2017-09-30T20:56:30.303Z,12.22
2017-09-30T21:01:26.135Z,12.06
2017-09-30T21:06:22.142Z,12.06
2017-09-30T21:11:20.771Z,12.21
2017-09-30T21:16:18.091Z,12.21
2017-09-30T21:21:15.267Z,12.17
2017-09-30T21:26:10.772Z,12.17
2017-09-30T21:31:07.123Z,12.06
2017-09-30T21:36:02.778Z,12.12
2017-09-30T21:40:59.465Z,12.24
2017-09-30T21:45:56.759Z,12.13
2017-09-30T21:50:52.883Z,12.21
2017-09-30T21:55:48.720Z,12.27
2017-09-30T22:00:45.478Z,12.21
2017-09-30T22:05:41.174Z,12.17
2017-09-30T22:10:38.202Z,12.03
2017-09-30T22:15:33.106Z,11.87
2017-09-30T22:20:29.255Z,11.95
2017-09-30T22:25:25.233Z,11.94
2017-09-30T22:30:21.449Z,11.95
2017-09-30T22:35:17.209Z,11.78
2017-09-30T22:40:14.278Z,11.80
2017-09-30T22:45:11.067Z,11.60
2017-09-30T22:50:08.486Z,11.72
2017-09-30T22:55:04.208Z,11.70
2017-09-30T23:00:00.743Z,11.62
2017-09-30T23:04:56.529Z,11.62
2017-09-30T23:09:55.053Z,11.73
2017-09-30T23:14:50.240Z,11.70
2017-09-30T23:19:46.284Z,11.54
2017-09-30T23:24:41.655Z,11.57
2017-09-30T23:29:37.580Z,11.70
2017-09-30T23:34:33.482Z,11.51
2017-09-30T23:39:30.238Z,11.59
2017-09-30T23:44:26.892Z,11.52
2017-09-30T23:49:22.358Z,11.41
2017-09-30T23:54:17.996Z,11.43
2017-09-30T23:59:15.213Z,11.37
